Terminal Aerodrome Forecast
Issued by NWS Pittsburgh, PA

Current Version | Previous Version | Graphics & Text | Print | Product List | Glossary On
Versions: 1 2 3 4 5 6 7 8 9 10 11 12 13 14 15 16 17 18 19 20 21 22 23 24 25 26 27 28 29 30
000
FTUS41 KPBZ 162000 AAA
TAFPIT
TAF AMD
KPIT 162058Z 1621/1724 32005KT P6SM SCT045
     FM170800 00000KT 4SM BR SKC
     FM171000 00000KT 2SM BR SKC
     FM171500 25005KT P6SM SCT040=

USA.gov is the U.S. government's official web portal to all federal, state and local government web resources and services.